LQTZ/TZL METAR and TAF weather

Enter ICAO airport designator
Station Type Date Time Source
LQTZ METAR 2021/07/28 20:00 UTC NOAA

LQTZ 282000Z VRB02KT CAVOK 23/22 Q1013


Station Type Date Time Source
LQTZ Decoded METAR 2021/07/28 20:00 UTC NOAA

Tuzla, Bosnia and Herzegovina (LQTZ) 44-33N 018-42E
Jul 28, 2021 - 04:00 PM EDT / 2021.07.28 2000 UTC
Wind: Variable at 2 MPH (2 KT):0
Visibility: greater than 7 mile(s):0
Temperature: 73 F (23 C)
Dew Point: 71 F (22 C)
Relative Humidity: 94%
Pressure (altimeter): 29.91 in. Hg (1013 hPa)
ob: LQTZ 282000Z VRB02KT CAVOK 23/22 Q1013
cycle: 20

Station Type Date Time Source
LQTZ TAF 2021/07/28 18:11 UTC NOAA

TAF LQTZ 281700Z 2818/2918 27005KT CAVOK TX35/2914Z TN17/2903Z

Example: see airport list